Time;durP1;ratioP1;P1;durP2;ratioP2;P2;SDS_P1;SDS_P2;PMS_P1;PMS_P2;Temp;Humidity;BMP_temperature;BMP_pressure;BME280_temperature;BME280_humidity;BME280_pressure;Samples;Min_cycle;Max_cycle;Signal;HPM_P1;HPM_P2
2023/01/21 00:02:09;;;;;;;4.43;2.43;;;;;;;17.96;52.00;100619.47;5105478;28;20234;-58
2023/01/21 00:04:36;;;;;;;2.97;2.10;;;;;;;17.89;51.91;100622.16;5089251;28;20967;-59
2023/01/21 00:07:05;;;;;;;2.93;1.87;;;;;;;17.92;52.51;100621.44;5090831;28;20420;-58
2023/01/21 00:09:31;;;;;;;5.13;2.43;;;;;;;17.90;52.07;100623.81;5091304;28;20503;-59
2023/01/21 00:11:57;;;;;;;3.67;2.13;;;;;;;17.89;52.06;100632.75;5093753;28;20444;-59
2023/01/21 00:14:22;;;;;;;3.80;2.20;;;;;;;17.90;52.28;100620.97;5091496;28;20178;-59
2023/01/21 00:16:48;;;;;;;3.50;2.53;;;;;;;17.90;52.07;100629.53;5092189;28;20179;-59
2023/01/21 00:19:13;;;;;;;3.57;2.00;;;;;;;17.96;51.85;100630.91;5090187;28;20169;-59
2023/01/21 00:21:38;;;;;;;4.10;2.17;;;;;;;17.93;51.76;100628.81;5111187;28;20644;-59
2023/01/21 00:24:04;;;;;;;3.77;2.30;;;;;;;17.86;52.16;100636.38;5107563;28;20189;-59
2023/01/21 00:26:30;;;;;;;3.27;2.37;;;;;;;17.87;52.38;100624.56;5076623;28;20181;-58
2023/01/21 00:28:55;;;;;;;2.83;1.90;;;;;;;17.93;52.09;100625.09;5107956;28;20605;-59
2023/01/21 00:31:21;;;;;;;4.17;2.47;;;;;;;17.91;52.00;100621.81;5111874;28;20161;-59
2023/01/21 00:33:47;;;;;;;3.70;2.27;;;;;;;17.92;51.81;100620.59;5111246;28;20666;-59
2023/01/21 00:36:12;;;;;;;4.13;2.60;;;;;;;17.90;52.09;100626.69;5098066;28;20182;-58
2023/01/21 00:38:38;;;;;;;3.50;1.93;;;;;;;17.90;52.28;100623.81;5091170;28;20852;-59
2023/01/21 00:41:10;;;;;;;3.00;2.20;;;;;;;17.87;52.31;100627.44;5095091;28;20215;-58
2023/01/21 00:43:36;;;;;;;2.87;1.93;;;;;;;17.90;52.05;100620.97;5111636;28;20176;-59
2023/01/21 00:46:01;;;;;;;3.20;2.10;;;;;;;17.88;52.18;100633.97;5111411;28;20412;-58
2023/01/21 00:48:27;;;;;;;3.47;2.00;;;;;;;17.88;51.97;100640.50;5093477;28;20218;-59
2023/01/21 00:50:54;;;;;;;3.20;1.77;;;;;;;17.89;52.25;100635.59;5090925;28;20540;-59
2023/01/21 00:53:21;;;;;;;2.73;1.97;;;;;;;17.83;52.15;100640.78;5097159;28;20922;-59
2023/01/21 00:55:47;;;;;;;3.43;1.90;;;;;;;17.84;52.10;100641.59;5111431;28;20496;-58
2023/01/21 00:58:12;;;;;;;3.23;2.20;;;;;;;17.84;52.28;100644.44;5106369;28;20412;-59
2023/01/21 01:00:37;;;;;;;3.23;2.30;;;;;;;17.86;52.10;100653.50;5108282;28;20182;-59
2023/01/21 01:03:03;;;;;;;3.33;2.20;;;;;;;17.87;52.11;100650.28;5106546;28;20219;-58
2023/01/21 01:05:28;;;;;;;2.93;1.90;;;;;;;17.87;51.89;100653.13;5072917;28;20794;-59
2023/01/21 01:07:54;;;;;;;3.27;2.33;;;;;;;17.86;52.22;100660.03;5091936;28;20181;-59
2023/01/21 01:10:19;;;;;;;3.10;2.00;;;;;;;17.84;52.01;100653.03;5104825;28;20176;-59
2023/01/21 01:12:44;;;;;;;3.20;2.10;;;;;;;17.87;51.96;100658.00;5110573;28;20895;-59
2023/01/21 01:15:10;;;;;;;3.90;2.40;;;;;;;17.81;52.29;100665.19;5095089;28;20174;-58
2023/01/21 01:17:35;;;;;;;3.13;1.93;;;;;;;17.87;52.37;100670.28;5071991;28;20174;-58
2023/01/21 01:20:01;;;;;;;3.37;2.50;;;;;;;17.86;51.96;100676.34;5075614;28;20170;-59
2023/01/21 01:22:26;;;;;;;4.23;2.30;;;;;;;17.90;52.01;100680.13;5094260;28;20840;-59
2023/01/21 01:24:52;;;;;;;3.40;2.30;;;;;;;17.88;51.89;100689.06;5094029;28;20243;-59
2023/01/21 01:27:17;;;;;;;3.00;1.80;;;;;;;17.83;52.40;100688.50;5096171;28;20178;-58
2023/01/21 01:29:43;;;;;;;3.23;2.03;;;;;;;17.79;52.43;100685.56;5093970;28;20252;-59
2023/01/21 01:32:08;;;;;;;3.33;2.10;;;;;;;17.79;51.92;100690.41;5094048;28;20174;-59
2023/01/21 01:34:34;;;;;;;2.50;1.67;;;;;;;17.84;52.42;100695.88;5094130;28;20185;-59
2023/01/21 01:36:59;;;;;;;3.57;2.40;;;;;;;17.83;52.21;100695.06;5113100;28;20182;-59
2023/01/21 01:39:25;;;;;;;4.00;2.30;;;;;;;17.78;52.15;100706.75;5114915;28;20154;-59
2023/01/21 01:41:50;;;;;;;3.53;2.30;;;;;;;17.70;52.55;100709.78;5110196;28;20640;-59
2023/01/21 01:44:53;;;;;;;3.40;2.10;;;;;;;17.76;52.00;100711.97;5114949;28;20173;-58
2023/01/21 01:47:18;;;;;;;3.67;2.10;;;;;;;17.77;52.40;100712.81;5110600;28;20182;-59
2023/01/21 01:49:44;;;;;;;3.13;2.07;;;;;;;17.75;52.58;100716.03;5114337;28;20506;-59
2023/01/21 01:52:09;;;;;;;3.43;2.07;;;;;;;17.81;52.13;100720.28;5113700;28;20219;-59
2023/01/21 01:54:36;;;;;;;3.20;2.03;;;;;;;17.78;52.28;100706.75;5081215;28;20174;-59
2023/01/21 01:57:03;;;;;;;2.67;1.90;;;;;;;17.75;52.17;100713.19;5094247;28;20166;-59
2023/01/21 01:59:29;;;;;;;3.13;2.10;;;;;;;17.79;52.70;100714.09;5099842;28;20463;-59
2023/01/21 02:01:56;;;;;;;4.00;2.47;;;;;;;17.75;52.49;100723.78;5084443;28;20442;-59
2023/01/21 02:04:22;;;;;;;3.00;2.10;;;;;;;17.77;51.84;100733.66;5074102;28;20694;-58
2023/01/21 02:06:48;;;;;;;4.40;2.37;;;;;;;17.74;52.30;100717.22;5061102;28;20484;-59
2023/01/21 02:09:13;;;;;;;2.97;1.73;;;;;;;17.70;52.30;100727.72;5075860;28;20440;-59
2023/01/21 02:11:39;;;;;;;3.20;2.20;;;;;;;17.74;51.89;100731.50;5105688;28;20701;-59
2023/01/21 02:14:04;;;;;;;3.30;2.20;;;;;;;17.80;52.14;100741.47;5093707;28;20728;-58
2023/01/21 02:16:53;;;;;;;2.57;2.00;;;;;;;17.76;52.10;100737.69;5057782;28;20214;-58
2023/01/21 02:19:38;;;;;;;2.80;1.80;;;;;;;17.74;52.18;100745.78;5042006;28;20189;-58
2023/01/21 02:22:09;;;;;;;3.83;2.40;;;;;;;17.75;52.08;100740.91;5099634;28;20492;-58
2023/01/21 02:24:43;;;;;;;3.47;2.20;;;;;;;17.72;52.57;100753.91;5115418;28;20403;-58
2023/01/21 02:27:43;;;;;;;3.00;1.97;;;;;;;17.75;52.17;100749.50;5107530;28;20472;-58
2023/01/21 02:30:35;;;;;;;3.93;2.50;;;;;;;17.72;51.89;100745.34;5093170;28;20452;-58
2023/01/21 02:33:33;;;;;;;3.87;2.23;;;;;;;17.71;52.31;100751.41;5068791;28;20427;-58
2023/01/21 02:36:46;;;;;;;2.70;1.80;;;;;;;17.71;52.31;100746.50;5093033;28;20440;-58
2023/01/21 02:39:30;;;;;;;2.73;1.80;;;;;;;17.66;52.51;100757.38;5108183;28;21015;-58
2023/01/21 02:42:05;;;;;;;2.73;1.60;;;;;;;17.67;52.53;100751.31;5109452;28;20504;-59
2023/01/21 02:44:39;;;;;;;2.97;2.03;;;;;;;17.68;52.15;100757.84;5095844;28;20399;-59
2023/01/21 02:47:52;;;;;;;3.20;2.00;;;;;;;17.68;52.39;100752.97;5113764;28;20866;-58
2023/01/21 02:50:21;;;;;;;3.53;2.27;;;;;;;17.68;52.43;100757.84;4984355;28;20828;-58
2023/01/21 02:53:00;;;;;;;3.47;1.80;;;;;;;17.63;52.70;100760.94;4971972;28;20457;-58
2023/01/21 02:55:36;;;;;;;3.80;2.07;;;;;;;17.66;52.27;100765.94;5000655;28;20443;-58
2023/01/21 02:58:08;;;;;;;3.17;2.10;;;;;;;17.65;52.39;100773.66;5074503;28;20427;-58
2023/01/21 03:00:54;;;;;;;3.40;1.70;;;;;;;17.66;52.33;100772.47;4998099;28;20448;-58
2023/01/21 03:03:22;;;;;;;3.27;1.93;;;;;;;17.67;52.53;100770.47;4999298;28;20413;-59
2023/01/21 03:06:00;;;;;;;3.93;2.30;;;;;;;17.67;52.29;100771.28;5063950;28;20441;-59
2023/01/21 03:08:38;;;;;;;2.50;1.70;;;;;;;17.67;52.43;100773.31;4990731;28;20460;-59
2023/01/21 03:11:18;;;;;;;2.70;1.90;;;;;;;17.63;52.57;100778.06;5000636;28;21297;-59
2023/01/21 03:17:03;;;;;;;4.17;2.20;;;;;;;17.63;52.62;100778.91;5009327;28;20447;-59
2023/01/21 03:19:31;;;;;;;2.50;1.63;;;;;;;17.66;52.45;100771.66;5068410;28;20446;-58
2023/01/21 03:21:58;;;;;;;3.10;1.77;;;;;;;17.67;52.14;100781.88;5058643;28;20439;-58
2023/01/21 03:24:23;;;;;;;2.57;1.60;;;;;;;17.57;52.14;100777.53;4990058;28;20483;-58
2023/01/21 03:26:49;;;;;;;3.53;2.17;;;;;;;17.60;52.20;100775.97;5041684;28;20436;-59
2023/01/21 03:29:18;;;;;;;3.40;1.87;;;;;;;17.68;52.03;100769.25;5040152;28;20208;-59
2023/01/21 03:31:45;;;;;;;2.50;1.83;;;;;;;17.62;52.11;100771.56;5041517;28;20499;-59
2023/01/21 03:34:11;;;;;;;3.20;2.13;;;;;;;17.60;52.52;100785.34;4953257;28;20743;-59
2023/01/21 03:36:49;;;;;;;3.13;2.10;;;;;;;17.58;52.35;100772.63;5059164;28;20456;-59
2023/01/21 03:39:23;;;;;;;2.50;1.57;;;;;;;17.62;52.44;100782.97;5038648;28;20425;-59
2023/01/21 03:41:49;;;;;;;2.70;1.77;;;;;;;17.66;52.10;100778.19;4985843;28;20455;-59
2023/01/21 03:44:14;;;;;;;2.50;1.70;;;;;;;17.69;52.23;100796.59;4989510;28;20828;-59
2023/01/21 03:46:45;;;;;;;3.23;2.10;;;;;;;17.59;52.09;100794.25;4992048;28;20181;-59
2023/01/21 03:49:10;;;;;;;2.77;1.83;;;;;;;17.64;52.26;100803.41;5054819;28;20225;-59
2023/01/21 03:51:38;;;;;;;2.80;1.90;;;;;;;17.64;52.08;100797.72;4989936;28;20444;-59
2023/01/21 03:54:03;;;;;;;3.33;1.70;;;;;;;17.58;52.02;100795.47;5052699;28;20463;-59
2023/01/21 03:56:29;;;;;;;2.70;1.80;;;;;;;17.57;52.19;100800.38;4995713;28;20425;-58
2023/01/21 03:58:54;;;;;;;2.90;1.90;;;;;;;17.62;52.49;100796.41;4992103;28;20182;-59
2023/01/21 04:01:20;;;;;;;2.73;1.73;;;;;;;17.58;51.97;100807.72;5004034;28;20178;-59
2023/01/21 04:03:45;;;;;;;2.90;1.57;;;;;;;17.58;52.45;100799.16;5031088;28;20178;-59
2023/01/21 04:06:18;;;;;;;3.37;1.90;;;;;;;17.57;52.49;100813.78;5046902;28;20198;-59
2023/01/21 04:08:44;;;;;;;3.00;1.43;;;;;;;17.57;52.34;100796.66;4991852;28;20217;-59
2023/01/21 04:11:09;;;;;;;2.50;1.67;;;;;;;17.58;52.45;100801.19;4990389;28;20429;-59
2023/01/21 04:13:35;;;;;;;2.80;1.70;;;;;;;17.57;52.38;100808.94;5058782;28;20212;-59
2023/01/21 04:16:00;;;;;;;2.60;1.90;;;;;;;17.60;52.02;100810.22;4989983;28;20260;-58
2023/01/21 04:18:25;;;;;;;3.00;1.60;;;;;;;17.56;52.21;100817.84;4990360;28;20324;-58
2023/01/21 04:20:51;;;;;;;3.07;1.70;;;;;;;17.56;52.36;100817.84;4989901;28;20242;-59
2023/01/21 04:23:16;;;;;;;2.33;1.40;;;;;;;17.58;52.37;100824.84;4988506;28;20569;-58
2023/01/21 04:25:42;;;;;;;2.90;1.90;;;;;;;17.56;52.57;100824.38;4991349;28;20170;-58
2023/01/21 04:28:07;;;;;;;3.27;1.90;;;;;;;17.54;52.34;100829.63;4990866;28;20652;-59
2023/01/21 04:30:32;;;;;;;2.50;1.70;;;;;;;17.52;52.69;100834.03;5008265;28;20177;-59
2023/01/21 04:32:58;;;;;;;2.70;1.83;;;;;;;17.53;52.54;100830.81;5075538;28;20173;-59
2023/01/21 04:35:23;;;;;;;2.73;1.60;;;;;;;17.55;52.12;100831.28;4991662;28;20201;-58
2023/01/21 04:37:49;;;;;;;2.10;1.67;;;;;;;17.56;52.25;100830.09;4989461;28;20181;-59
2023/01/21 04:40:14;;;;;;;2.30;1.73;;;;;;;17.57;52.38;100839.50;4994734;28;20698;-58
2023/01/21 04:42:43;;;;;;;2.53;1.63;;;;;;;17.55;52.15;100834.13;5004497;28;20588;-59
2023/01/21 04:45:08;;;;;;;3.30;1.90;;;;;;;17.53;52.44;100835.69;5008679;28;20176;-59
2023/01/21 04:47:34;;;;;;;2.40;1.50;;;;;;;17.56;52.55;100835.78;5006508;28;20447;-59
2023/01/21 04:50:00;;;;;;;2.30;1.50;;;;;;;17.52;52.21;100845.44;5084781;28;20688;-58
2023/01/21 04:52:26;;;;;;;2.80;1.60;;;;;;;17.54;52.20;100843.91;5090817;28;20200;-59
2023/01/21 04:54:52;;;;;;;3.00;1.80;;;;;;;17.60;52.15;100847.34;5093417;28;20436;-59
2023/01/21 04:57:17;;;;;;;3.00;1.90;;;;;;;17.65;51.84;100847.91;5091171;28;20559;-59
2023/01/21 04:59:42;;;;;;;2.80;1.80;;;;;;;17.64;51.99;100851.97;5073068;28;20545;-59
2023/01/21 05:02:08;;;;;;;2.97;1.80;;;;;;;17.66;51.93;100846.69;5092939;28;20190;-59
2023/01/21 05:04:33;;;;;;;2.73;2.00;;;;;;;17.60;52.01;100844.50;5075267;28;20202;-58
2023/01/21 05:06:59;;;;;;;2.50;1.80;;;;;;;17.59;52.03;100852.22;5088673;28;20235;-59
2023/01/21 05:09:24;;;;;;;2.10;1.30;;;;;;;17.56;52.03;100861.47;5110341;28;20198;-59
2023/01/21 05:11:50;;;;;;;2.40;1.70;;;;;;;17.56;52.35;100861.47;5109814;28;20174;-59
2023/01/21 05:14:15;;;;;;;3.60;1.67;;;;;;;17.58;52.18;100861.97;5106631;28;20707;-59
2023/01/21 05:16:40;;;;;;;2.60;1.67;;;;;;;17.56;52.20;100870.06;5110236;28;20177;-59
2023/01/21 05:19:06;;;;;;;3.03;1.93;;;;;;;17.54;52.26;100861.03;5110410;28;20166;-58
2023/01/21 05:21:31;;;;;;;2.60;1.60;;;;;;;17.63;52.22;100866.59;5111336;28;20170;-58
2023/01/21 05:23:57;;;;;;;2.63;1.40;;;;;;;17.63;51.79;100866.59;5107082;28;20182;-59
2023/01/21 05:26:22;;;;;;;2.70;1.60;;;;;;;17.60;52.01;100870.19;5111384;28;20170;-59
2023/01/21 05:28:48;;;;;;;2.53;1.40;;;;;;;17.64;52.08;100877.66;5110960;28;20185;-59
2023/01/21 05:31:13;;;;;;;2.70;1.77;;;;;;;17.60;52.03;100879.56;5111151;28;20169;-58
2023/01/21 05:33:38;;;;;;;2.10;1.40;;;;;;;17.58;52.30;100878.25;5106774;28;20527;-58
2023/01/21 05:36:04;;;;;;;2.20;1.60;;;;;;;17.62;52.00;100884.91;5103077;28;20659;-59
2023/01/21 05:38:30;;;;;;;3.50;1.90;;;;;;;17.58;52.28;100890.53;5094149;28;20571;-59
2023/01/21 05:40:59;;;;;;;3.00;1.97;;;;;;;17.60;51.94;100888.13;5111153;28;20185;-58
2023/01/21 05:43:25;;;;;;;2.53;1.90;;;;;;;17.59;51.97;100895.03;5107400;28;20185;-59
2023/01/21 05:45:50;;;;;;;2.53;1.60;;;;;;;17.58;52.16;100887.66;5110859;28;20526;-58
2023/01/21 05:48:16;;;;;;;2.40;1.50;;;;;;;17.60;52.25;100893.84;5106291;28;20275;-59
2023/01/21 05:50:41;;;;;;;2.70;1.60;;;;;;;17.56;52.01;100903.50;5111111;28;20166;-59
2023/01/21 05:53:06;;;;;;;3.40;1.87;;;;;;;17.60;51.75;100904.44;5104420;28;20186;-58
2023/01/21 05:55:32;;;;;;;2.90;1.70;;;;;;;17.57;52.15;100911.72;5090693;28;20163;-58
2023/01/21 05:57:57;;;;;;;2.47;1.63;;;;;;;17.56;52.30;100912.88;5090546;28;20178;-59
2023/01/21 06:00:23;;;;;;;2.57;1.90;;;;;;;17.56;51.96;100918.59;5075026;28;20182;-59
2023/01/21 06:02:48;;;;;;;2.53;1.60;;;;;;;17.56;52.14;100904.31;5088783;28;20213;-58
2023/01/21 06:05:14;;;;;;;2.67;1.90;;;;;;;17.57;52.31;100916.56;5090707;28;20237;-58
2023/01/21 06:07:39;;;;;;;2.33;1.50;;;;;;;17.56;52.42;100915.72;5095589;28;20607;-59
2023/01/21 06:10:05;;;;;;;2.93;1.50;;;;;;;17.56;52.06;100917.78;5098703;28;20194;-59
2023/01/21 06:12:31;;;;;;;3.00;1.50;;;;;;;17.59;52.08;100928.44;5094985;28;20190;-59
2023/01/21 06:14:58;;;;;;;2.60;1.47;;;;;;;17.61;52.02;100917.53;5095227;28;20396;-59
2023/01/21 06:17:23;;;;;;;3.30;1.60;;;;;;;17.59;51.94;100917.88;5096750;28;20236;-58
2023/01/21 06:19:49;;;;;;;2.47;1.57;;;;;;;17.59;51.94;100920.72;5115075;28;20462;-58
2023/01/21 06:22:14;;;;;;;2.20;1.50;;;;;;;17.58;52.10;100923.94;5115110;28;20178;-58
2023/01/21 06:24:40;;;;;;;2.40;1.70;;;;;;;17.60;52.15;100936.66;5092225;28;20174;-58
2023/01/21 06:27:05;;;;;;;2.43;1.50;;;;;;;17.60;51.58;100927.28;5095783;28;20190;-58
2023/01/21 06:29:31;;;;;;;3.30;1.77;;;;;;;17.62;51.80;100934.31;5094102;28;20557;-58
2023/01/21 06:31:56;;;;;;;2.57;1.70;;;;;;;17.63;51.89;100938.81;5105397;28;20551;-58
2023/01/21 06:34:22;;;;;;;2.60;1.70;;;;;;;17.64;52.13;100940.47;5113014;28;20174;-59
2023/01/21 06:36:47;;;;;;;3.70;1.80;;;;;;;17.62;51.87;100934.31;5095194;28;20174;-58
2023/01/21 06:39:12;;;;;;;2.10;1.37;;;;;;;17.65;51.93;100947.03;5114300;28;20170;-58
2023/01/21 06:41:38;;;;;;;2.23;1.53;;;;;;;17.60;51.83;100955.84;5114204;28;20185;-58
2023/01/21 06:44:03;;;;;;;3.53;2.10;;;;;;;17.60;51.80;100950.13;5100457;28;20177;-58
2023/01/21 06:46:29;;;;;;;2.60;1.67;;;;;;;17.65;52.04;100964.97;5093053;28;20171;-59
2023/01/21 06:48:54;;;;;;;2.70;1.63;;;;;;;17.63;52.03;100958.81;5095381;28;20222;-58
2023/01/21 06:51:20;;;;;;;2.20;1.60;;;;;;;17.68;51.79;100972.84;5113215;28;20161;-58
2023/01/21 06:53:45;;;;;;;2.40;1.60;;;;;;;17.62;52.00;100965.72;5097051;28;20178;-58
2023/01/21 06:56:10;;;;;;;2.83;1.93;;;;;;;17.63;52.09;100977.94;5092600;28;20181;-58
2023/01/21 06:58:36;;;;;;;2.63;1.67;;;;;;;17.62;52.04;100971.41;5099151;28;20580;-58
2023/01/21 07:01:01;;;;;;;2.27;1.70;;;;;;;17.59;51.68;100980.69;5096940;28;20175;-58
2023/01/21 07:03:28;;;;;;;2.43;1.40;;;;;;;17.58;52.02;100984.75;5074526;28;20175;-59
2023/01/21 07:05:53;;;;;;;3.33;1.80;;;;;;;17.60;51.75;100987.25;5104507;28;20218;-58
2023/01/21 07:08:18;;;;;;;2.43;1.60;;;;;;;17.63;51.62;101001.63;5093077;28;20416;-59
2023/01/21 07:10:44;;;;;;;2.27;1.60;;;;;;;17.63;51.96;101001.63;5095085;28;20178;-59
2023/01/21 07:13:09;;;;;;;2.57;1.77;;;;;;;17.64;52.06;101006.13;5097481;28;20165;-59
2023/01/21 07:15:35;;;;;;;2.30;1.60;;;;;;;17.64;51.72;101000.44;5108407;28;20539;-58
2023/01/21 07:18:00;;;;;;;2.10;1.40;;;;;;;17.65;51.73;101002.09;5089464;28;20633;-59
2023/01/21 07:20:26;;;;;;;2.40;1.70;;;;;;;17.62;51.90;101013.41;5091903;28;20150;-59
2023/01/21 07:22:51;;;;;;;2.70;1.57;;;;;;;17.62;52.12;101013.41;5094662;28;20179;-59
2023/01/21 07:25:16;;;;;;;2.53;1.40;;;;;;;17.62;52.12;101022.81;5074578;28;20216;-59
2023/01/21 07:27:42;;;;;;;2.50;1.70;;;;;;;17.61;51.81;101031.72;5094866;28;20181;-59
2023/01/21 07:30:14;;;;;;;3.10;1.90;;;;;;;17.60;52.01;101036.59;5092169;28;20668;-59
2023/01/21 07:32:40;;;;;;;4.73;2.00;;;;;;;17.65;51.86;101032.69;5075156;28;20169;-59
2023/01/21 07:35:06;;;;;;;2.90;2.10;;;;;;;17.62;52.04;101041.94;5074150;28;20425;-59
2023/01/21 07:37:31;;;;;;;2.50;1.50;;;;;;;17.66;51.69;101042.91;5098225;28;20565;-59
2023/01/21 07:39:57;;;;;;;3.80;1.70;;;;;;;17.67;51.79;101042.56;5111797;28;20497;-59
2023/01/21 07:42:22;;;;;;;2.67;1.80;;;;;;;17.67;52.05;101047.44;5109763;28;20181;-59
2023/01/21 07:44:47;;;;;;;3.13;2.03;;;;;;;17.65;51.88;101052.69;5094146;28;20179;-59
2023/01/21 07:47:13;;;;;;;3.00;1.90;;;;;;;17.65;51.61;101053.50;5074108;28;20186;-59
2023/01/21 07:49:39;;;;;;;2.33;1.60;;;;;;;17.65;51.66;101050.63;5091846;28;20222;-59
2023/01/21 07:52:05;;;;;;;3.13;2.10;;;;;;;17.74;51.77;101056.22;5093949;28;20227;-58
2023/01/21 07:54:30;;;;;;;3.00;1.87;;;;;;;17.67;51.93;101056.00;5092012;28;20413;-58
2023/01/21 07:56:55;;;;;;;2.80;1.80;;;;;;;17.69;51.68;101054.44;5091977;28;20163;-59
2023/01/21 07:59:21;;;;;;;2.93;1.93;;;;;;;17.65;51.90;101059.19;5093761;28;20178;-58
2023/01/21 08:01:46;;;;;;;3.13;1.90;;;;;;;17.67;51.75;101064.56;5080998;28;20872;-59
2023/01/21 08:04:12;;;;;;;3.73;2.00;;;;;;;17.65;52.02;101067.75;5091495;28;20162;-58
2023/01/21 08:06:40;;;;;;;4.20;2.37;;;;;;;17.67;51.77;101071.13;5097554;28;20197;-59
2023/01/21 08:09:05;;;;;;;2.53;1.47;;;;;;;17.63;51.51;101075.88;5075921;28;20204;-59
2023/01/21 08:11:31;;;;;;;2.50;1.60;;;;;;;17.63;51.77;101077.88;5091770;28;20417;-59
2023/01/21 08:13:56;;;;;;;3.10;1.67;;;;;;;17.65;51.84;101070.63;5091580;28;20527;-59
2023/01/21 08:16:22;;;;;;;2.50;1.77;;;;;;;17.66;51.86;101080.03;5094013;28;20174;-59
2023/01/21 08:18:47;;;;;;;2.93;1.53;;;;;;;17.64;51.82;101079.53;5091480;28;20178;-59
2023/01/21 08:21:12;;;;;;;2.23;1.70;;;;;;;17.63;51.88;101084.44;5091707;28;20177;-59
2023/01/21 08:23:38;;;;;;;3.17;1.70;;;;;;;17.66;51.81;101085.75;5091797;28;20167;-59
2023/01/21 08:26:04;;;;;;;2.70;1.47;;;;;;;17.66;51.66;101091.47;5093867;28;20178;-59
2023/01/21 08:28:29;;;;;;;2.33;1.70;;;;;;;17.70;51.64;101098.13;5104782;28;20190;-59
2023/01/21 08:31:02;;;;;;;2.33;1.47;;;;;;;17.66;51.79;101092.25;5093070;28;20501;-59
2023/01/21 08:33:27;;;;;;;2.63;1.90;;;;;;;17.68;51.46;101095.63;5091682;28;20679;-59
2023/01/21 08:35:57;;;;;;;2.57;1.53;;;;;;;17.68;51.76;101100.50;5091356;28;20412;-59
2023/01/21 08:38:22;;;;;;;2.90;1.70;;;;;;;17.71;51.50;101100.59;5074104;28;20539;-59
2023/01/21 08:40:48;;;;;;;3.37;1.60;;;;;;;17.69;51.50;101102.16;5099309;28;20431;-58
2023/01/21 08:43:13;;;;;;;2.43;1.67;;;;;;;17.69;51.35;101107.84;5111566;28;20161;-58
2023/01/21 08:45:39;;;;;;;3.43;1.90;;;;;;;17.68;51.62;101112.75;5105536;28;20186;-59
2023/01/21 08:48:04;;;;;;;3.53;1.80;;;;;;;17.69;51.47;101120.13;5091057;28;20222;-59
2023/01/21 08:50:30;;;;;;;2.50;1.60;;;;;;;17.70;51.45;101116.06;5093740;28;20563;-58
2023/01/21 08:52:55;;;;;;;3.47;2.17;;;;;;;17.73;51.46;101118.22;5091338;28;20201;-59
2023/01/21 08:55:25;;;;;;;2.73;1.63;;;;;;;17.67;51.69;101118.81;5093222;28;20174;-59
2023/01/21 08:57:52;;;;;;;2.67;1.60;;;;;;;17.69;51.94;101111.56;5090781;28;20178;-59
2023/01/21 09:00:18;;;;;;;2.60;1.77;;;;;;;17.72;51.23;101122.28;5090110;28;20412;-58
2023/01/21 09:02:44;;;;;;;3.97;1.90;;;;;;;17.71;51.65;101126.31;5108507;28;20921;-59
2023/01/21 09:05:09;;;;;;;1.90;1.20;;;;;;;17.75;51.46;101130.13;5070724;28;20437;-58
2023/01/21 09:07:35;;;;;;;2.03;1.43;;;;;;;17.74;51.47;101128.47;5074095;28;20189;-59
2023/01/21 09:10:01;;;;;;;2.73;1.50;;;;;;;17.69;51.94;101131.56;5089888;28;20186;-59
2023/01/21 09:12:26;;;;;;;2.60;1.93;;;;;;;17.73;51.68;101131.66;5090133;28;20218;-58
2023/01/21 09:14:51;;;;;;;2.00;1.30;;;;;;;17.77;51.35;101136.34;5108686;28;20420;-58
2023/01/21 09:17:17;;;;;;;2.40;1.60;;;;;;;17.67;51.50;101135.94;5110349;28;20188;-58
2023/01/21 09:19:42;;;;;;;2.70;1.87;;;;;;;17.71;51.60;101134.88;5099591;28;20178;-59
2023/01/21 09:22:08;;;;;;;2.53;1.77;;;;;;;17.72;51.13;101142.28;5091130;28;20167;-58
2023/01/21 09:24:33;;;;;;;3.23;1.90;;;;;;;17.78;51.10;101140.84;5091033;28;20666;-58
2023/01/21 09:26:59;;;;;;;3.00;1.83;;;;;;;17.77;51.45;101150.63;5090721;28;20166;-59
2023/01/21 09:29:24;;;;;;;2.37;1.60;;;;;;;17.69;51.65;101148.69;5092629;28;20206;-59
2023/01/21 09:31:50;;;;;;;2.77;1.73;;;;;;;17.72;51.25;101161.41;5090703;28;20163;-58
2023/01/21 09:34:15;;;;;;;2.93;1.90;;;;;;;17.73;51.46;101160.22;5105229;28;20180;-58
2023/01/21 09:36:40;;;;;;;2.40;1.50;;;;;;;17.76;51.37;101166.06;5097120;28;20178;-59
2023/01/21 09:39:06;;;;;;;2.60;1.43;;;;;;;17.71;51.45;101168.31;5104430;28;20185;-59
2023/01/21 09:41:37;;;;;;;3.13;2.40;;;;;;;17.70;51.61;101164.63;5113193;28;20170;-59
2023/01/21 09:44:18;;;;;;;2.50;1.60;;;;;;;17.74;51.46;101168.44;5096748;28;20273;-59
2023/01/21 09:46:47;;;;;;;3.07;1.93;;;;;;;17.74;51.18;101174.16;5088045;28;20416;-59
2023/01/21 09:49:16;;;;;;;2.83;1.60;;;;;;;17.82;51.24;101180.94;5105279;28;20479;-59
2023/01/21 09:51:46;;;;;;;2.87;1.67;;;;;;;17.77;51.62;101184.88;5096726;28;20411;-59
2023/01/21 09:54:19;;;;;;;2.70;1.87;;;;;;;17.77;51.37;101195.47;5096764;28;20438;-59
2023/01/21 09:56:55;;;;;;;2.60;1.60;;;;;;;17.76;51.26;101200.31;5088612;28;20811;-59
2023/01/21 10:00:04;;;;;;;2.47;1.90;;;;;;;17.84;50.92;101201.41;5085995;28;20468;-58
2023/01/21 10:02:41;;;;;;;2.90;1.67;;;;;;;17.75;51.68;101195.81;5038690;28;20464;-58
2023/01/21 10:05:21;;;;;;;2.40;1.43;;;;;;;17.81;51.11;101193.56;5076074;28;20485;-58
2023/01/21 10:08:21;;;;;;;3.00;1.70;;;;;;;17.84;51.17;101193.69;5055550;28;20447;-59
2023/01/21 10:10:59;;;;;;;3.37;2.00;;;;;;;17.87;51.18;101195.84;4983281;28;20845;-59
2023/01/21 10:13:30;;;;;;;3.50;1.70;;;;;;;17.80;51.43;101203.34;5073230;28;20400;-58
2023/01/21 10:16:27;;;;;;;2.87;2.00;;;;;;;17.78;50.99;101180.84;5072798;28;20849;-59
2023/01/21 10:18:52;;;;;;;2.50;1.60;;;;;;;17.87;50.96;101195.00;5052818;28;20436;-59
2023/01/21 10:21:27;;;;;;;2.83;1.73;;;;;;;17.81;51.32;101191.53;5092946;28;20404;-59
2023/01/21 10:23:56;;;;;;;3.20;1.70;;;;;;;17.83;51.37;101194.88;5093707;28;20252;-58
2023/01/21 10:26:21;;;;;;;2.43;1.70;;;;;;;17.88;51.06;101193.81;5093901;28;20803;-59
2023/01/21 10:28:49;;;;;;;2.60;1.57;;;;;;;17.80;51.06;101197.63;5104576;28;20508;-59
2023/01/21 10:31:19;;;;;;;2.97;1.87;;;;;;;17.83;51.48;101189.16;5096058;28;20174;-58
2023/01/21 10:33:45;;;;;;;2.70;1.57;;;;;;;17.83;51.26;101197.75;5113966;28;20399;-59
2023/01/21 10:36:10;;;;;;;3.03;1.80;;;;;;;17.87;50.84;101186.44;5105257;28;21108;-59
2023/01/21 10:38:57;;;;;;;2.60;1.70;;;;;;;17.83;50.96;101189.16;5112071;28;20177;-59
2023/01/21 10:41:39;;;;;;;3.27;1.70;;;;;;;17.85;50.88;101186.78;5095120;28;20196;-59
2023/01/21 10:44:28;;;;;;;2.60;1.73;;;;;;;17.85;51.43;101189.63;5071806;28;20425;-59
2023/01/21 10:47:02;;;;;;;3.43;2.20;;;;;;;17.84;51.19;101198.56;5079736;28;20462;-58
2023/01/21 10:49:56;;;;;;;4.00;1.97;;;;;;;17.88;51.05;101183.22;5094484;28;20567;-58
2023/01/21 10:52:45;;;;;;;11.50;6.17;;;;;;;17.39;48.43;101181.44;5086975;28;21258;-61
2023/01/21 10:55:19;;;;;;;17.90;8.37;;;;;;;16.78;41.32;101190.03;5076360;28;20440;-58
2023/01/21 10:58:02;;;;;;;12.77;8.73;;;;;;;16.75;42.86;101185.88;5093405;28;20985;-59
2023/01/21 11:00:32;;;;;;;16.83;9.60;;;;;;;17.01;40.99;101183.63;5076411;28;20750;-58
2023/01/21 11:03:00;;;;;;;11.80;8.00;;;;;;;17.38;40.73;101182.59;5073623;28;20457;-59
2023/01/21 11:05:26;;;;;;;13.63;7.87;;;;;;;17.70;40.95;101183.81;5057323;28;20487;-59
2023/01/21 11:07:51;;;;;;;21.03;8.13;;;;;;;18.09;40.37;101185.97;5075063;28;21042;-58
2023/01/21 11:10:19;;;;;;;21.27;7.83;;;;;;;18.17;40.67;101185.03;5102411;28;20781;-58
2023/01/21 11:12:45;;;;;;;20.23;7.70;;;;;;;18.21;41.03;101177.41;5062449;28;20183;-59
2023/01/21 11:15:16;;;;;;;19.00;7.90;;;;;;;18.22;41.48;101174.16;5054598;28;20480;-58
2023/01/21 11:17:44;;;;;;;25.60;7.40;;;;;;;18.26;41.66;101169.41;5094743;28;20447;-58
2023/01/21 11:20:31;;;;;;;25.53;8.17;;;;;;;18.27;42.09;101167.41;5093167;28;20443;-58
2023/01/21 11:22:57;;;;;;;18.60;6.77;;;;;;;18.15;42.19;101168.22;5076036;28;20448;-58
2023/01/21 11:25:30;;;;;;;15.53;6.40;;;;;;;17.88;42.92;101163.22;5092199;28;20439;-58
2023/01/21 11:27:55;;;;;;;18.83;6.60;;;;;;;17.88;43.41;101160.38;5074374;28;20503;-58
2023/01/21 11:30:37;;;;;;;11.93;5.67;;;;;;;17.87;43.44;101161.56;5092546;28;20509;-58
2023/01/21 11:33:18;;;;;;;15.83;5.67;;;;;;;17.85;43.81;101166.78;5080969;28;20174;-58
2023/01/21 11:35:43;;;;;;;14.60;5.53;;;;;;;17.82;43.75;101176.09;5077195;28;20652;-58